createdAt,value
2019-04-27T00:01:13.867Z,78.80
2019-04-27T00:04:04.059Z,79.10
2019-04-27T00:06:38.333Z,79.30
2019-04-27T00:09:24.979Z,79.40
2019-04-27T00:12:03.487Z,79.70
2019-04-27T00:14:34.187Z,80.00
2019-04-27T00:17:05.612Z,80.20
2019-04-27T00:19:37.045Z,80.50
2019-04-27T00:22:27.767Z,81.10
2019-04-27T00:24:58.713Z,81.50
2019-04-27T00:27:28.487Z,81.90
2019-04-27T00:29:58.291Z,82.10
2019-04-27T00:32:28.222Z,82.50
2019-04-27T00:34:59.125Z,82.60
2019-04-27T00:37:39.086Z,82.80
2019-04-27T00:40:10.869Z,83.00
2019-04-27T00:42:40.738Z,83.20
2019-04-27T00:45:11.028Z,83.20
2019-04-27T00:47:53.669Z,83.50
2019-04-27T00:50:13.444Z,83.60
2019-04-27T00:52:43.415Z,83.60
2019-04-27T00:55:13.423Z,83.00
2019-04-27T00:57:44.929Z,82.80
2019-04-27T01:00:33.603Z,82.90
2019-04-27T01:03:05.042Z,82.60
2019-04-27T01:05:35.210Z,82.60
2019-04-27T01:08:05.136Z,82.60
2019-04-27T01:10:34.998Z,82.50
2019-04-27T01:13:05.728Z,82.20
2019-04-27T01:15:35.525Z,81.90
2019-04-27T01:18:12.233Z,81.60
2019-04-27T01:20:38.783Z,81.30
2019-04-27T01:23:08.937Z,80.90
2019-04-27T01:25:48.830Z,80.90
2019-04-27T01:28:20.749Z,80.80
2019-04-27T01:30:52.257Z,80.70
2019-04-27T01:33:22.052Z,81.30
2019-04-27T01:35:51.832Z,80.60
2019-04-27T01:38:21.623Z,80.50
2019-04-27T01:40:51.463Z,80.30
2019-04-27T01:43:21.244Z,80.40
2019-04-27T01:45:51.021Z,80.40
2019-04-27T01:48:23.690Z,80.50
2019-04-27T01:50:52.299Z,80.50
2019-04-27T01:53:22.087Z,80.60
2019-04-27T01:55:51.891Z,80.70
2019-04-27T01:58:21.683Z,80.90
2019-04-27T02:01:09.674Z,81.00
2019-04-27T02:03:46.827Z,81.00
2019-04-27T02:06:19.057Z,81.00
2019-04-27T02:08:49.376Z,81.00
2019-04-27T02:11:19.199Z,81.10
2019-04-27T02:13:50.840Z,81.20
2019-04-27T02:16:20.547Z,81.30
2019-04-27T02:18:50.320Z,81.30
2019-04-27T02:21:20.123Z,81.40
2019-04-27T02:23:49.916Z,81.30
2019-04-27T02:26:21.554Z,81.10
2019-04-27T02:29:01.635Z,81.20
2019-04-27T02:31:50.080Z,81.20
2019-04-27T02:34:36.142Z,81.30
2019-04-27T02:37:05.942Z,81.30
2019-04-27T02:39:35.714Z,81.40
2019-04-27T02:42:05.817Z,81.40
2019-04-27T02:44:37.249Z,81.40
2019-04-27T02:47:07.215Z,81.60
2019-04-27T02:49:36.986Z,81.60
2019-04-27T02:52:11.909Z,81.50
2019-04-27T02:54:41.701Z,81.50
2019-04-27T02:57:11.489Z,81.60
2019-04-27T02:59:41.282Z,81.80
2019-04-27T03:02:29.956Z,81.70
2019-04-27T03:05:00.787Z,81.70
2019-04-27T03:07:30.801Z,81.80
2019-04-27T03:10:02.258Z,81.60
2019-04-27T03:12:33.725Z,81.60
2019-04-27T03:15:17.244Z,81.70
2019-04-27T03:18:05.253Z,81.80
2019-04-27T03:20:50.385Z,81.60
2019-04-27T03:23:20.411Z,81.60
2019-04-27T03:26:04.107Z,81.70
2019-04-27T03:28:34.026Z,81.70
2019-04-27T03:31:04.226Z,81.70
2019-04-27T03:33:34.088Z,81.80
2019-04-27T03:36:04.028Z,82.00
2019-04-27T03:38:33.951Z,82.30
2019-04-27T03:41:03.812Z,82.20
2019-04-27T03:43:33.669Z,82.30
2019-04-27T03:46:03.717Z,82.50
2019-04-27T03:48:33.565Z,82.50
2019-04-27T03:51:14.040Z,82.50
2019-04-27T03:53:51.131Z,82.70
2019-04-27T03:56:30.357Z,82.90
2019-04-27T03:59:13.843Z,83.00
2019-04-27T04:01:43.715Z,83.20
2019-04-27T04:04:13.567Z,83.40
2019-04-27T04:06:43.332Z,83.60
2019-04-27T04:09:13.203Z,83.80
2019-04-27T04:11:56.474Z,84.10
2019-04-27T04:14:26.255Z,84.20
2019-04-27T04:17:02.215Z,84.20
2019-04-27T04:19:31.548Z,84.10
2019-04-27T04:22:00.758Z,84.50
2019-04-27T04:24:31.845Z,84.50
2019-04-27T04:27:01.811Z,85.00
2019-04-27T04:29:31.605Z,84.60
2019-04-27T04:32:02.470Z,84.60
2019-04-27T04:34:32.267Z,84.70
2019-04-27T04:37:02.045Z,84.80
2019-04-27T04:39:31.973Z,84.90
2019-04-27T04:42:03.454Z,85.10
2019-04-27T04:44:39.776Z,85.10
2019-04-27T04:47:16.233Z,85.10
2019-04-27T04:49:46.096Z,85.20
2019-04-27T04:52:15.871Z,85.00
2019-04-27T04:54:45.663Z,85.00
2019-04-27T04:57:15.439Z,85.00
2019-04-27T04:59:45.313Z,84.90
2019-04-27T05:02:15.111Z,84.80
2019-04-27T05:04:44.896Z,84.90
2019-04-27T05:07:14.699Z,84.60
2019-04-27T05:09:44.491Z,84.50
2019-04-27T05:12:14.271Z,84.50
2019-04-27T05:14:44.127Z,84.40
2019-04-27T05:17:13.935Z,84.20
2019-04-27T05:19:44.282Z,84.10
2019-04-27T05:22:14.069Z,84.00
2019-04-27T05:24:43.861Z,83.80
2019-04-27T05:27:13.654Z,83.70
2019-04-27T05:29:43.434Z,83.40
2019-04-27T05:32:13.219Z,83.90
2019-04-27T05:34:42.999Z,83.00
2019-04-27T05:37:12.783Z,83.00
2019-04-27T05:39:42.559Z,83.10
2019-04-27T05:42:16.966Z,83.30
2019-04-27T05:45:22.870Z,83.40
2019-04-27T05:47:54.203Z,84.00
2019-04-27T05:50:35.492Z,85.60
2019-04-27T05:52:56.522Z,85.10
2019-04-27T05:55:26.310Z,85.80
2019-04-27T05:57:56.108Z,86.20
2019-04-27T06:00:25.953Z,86.90
2019-04-27T06:02:55.728Z,87.30
2019-04-27T06:05:25.517Z,87.50
2019-04-27T06:07:55.290Z,87.70
2019-04-27T06:10:25.074Z,87.90
2019-04-27T06:12:54.862Z,88.40
2019-04-27T06:15:24.651Z,88.90
2019-04-27T06:17:54.430Z,89.60
2019-04-27T06:20:24.228Z,89.80
2019-04-27T06:22:54.008Z,89.80
2019-04-27T06:25:23.797Z,90.00
2019-04-27T06:27:53.588Z,90.00
2019-04-27T06:30:23.441Z,89.90
2019-04-27T06:32:53.211Z,89.60
2019-04-27T06:35:22.997Z,89.50
2019-04-27T06:37:52.783Z,89.50
2019-04-27T06:40:22.573Z,89.70
2019-04-27T06:42:52.359Z,89.80
2019-04-27T06:45:22.131Z,89.70
2019-04-27T06:47:51.916Z,89.50
2019-04-27T06:50:21.702Z,89.50
2019-04-27T06:52:51.491Z,89.70
2019-04-27T06:55:21.264Z,89.80
2019-04-27T06:57:51.065Z,89.90
2019-04-27T07:00:20.852Z,89.50
2019-04-27T07:02:50.639Z,89.40
2019-04-27T07:05:20.583Z,89.70
2019-04-27T07:07:50.451Z,89.70
2019-04-27T07:10:20.242Z,89.60
2019-04-27T07:12:50.041Z,89.70
2019-04-27T07:15:20.491Z,89.70
2019-04-27T07:17:50.511Z,89.50
2019-04-27T07:20:20.293Z,90.00
2019-04-27T07:22:50.079Z,89.70
2019-04-27T07:25:19.937Z,89.80
2019-04-27T07:27:49.735Z,90.20
2019-04-27T07:30:19.561Z,89.80
2019-04-27T07:32:49.411Z,90.00
2019-04-27T07:35:19.696Z,90.20
2019-04-27T07:37:49.659Z,90.20
2019-04-27T07:40:19.539Z,90.40
2019-04-27T07:42:50.963Z,90.70
2019-04-27T07:45:29.394Z,90.80
2019-04-27T07:47:59.409Z,91.00
2019-04-27T07:50:29.206Z,91.10
2019-04-27T07:52:58.983Z,91.10
2019-04-27T07:55:29.847Z,90.90
2019-04-27T07:57:59.919Z,90.80
2019-04-27T08:00:29.899Z,90.90
2019-04-27T08:02:59.755Z,90.80
2019-04-27T08:05:29.561Z,90.90
2019-04-27T08:08:00.181Z,91.00
2019-04-27T08:10:30.141Z,91.00
2019-04-27T08:12:59.918Z,91.20
2019-04-27T08:15:29.790Z,91.20
2019-04-27T08:18:00.346Z,91.10
2019-04-27T08:20:30.138Z,91.10
2019-04-27T08:23:01.416Z,91.20
2019-04-27T08:25:31.387Z,91.40
2019-04-27T08:28:10.442Z,91.40
2019-04-27T08:30:42.074Z,91.40
2019-04-27T08:33:13.502Z,91.40
2019-04-27T08:35:43.300Z,91.30
2019-04-27T08:38:13.078Z,91.30
2019-04-27T08:40:42.886Z,91.10
2019-04-27T08:43:12.667Z,91.10
2019-04-27T08:45:42.449Z,91.30
2019-04-27T08:48:13.201Z,91.60
2019-04-27T08:50:42.978Z,91.70
2019-04-27T08:53:12.796Z,91.70
2019-04-27T08:55:42.562Z,91.70
2019-04-27T08:58:12.358Z,91.80
2019-04-27T09:00:42.157Z,91.90
2019-04-27T09:03:11.943Z,92.20
2019-04-27T09:05:41.732Z,92.50
2019-04-27T09:08:25.269Z,92.20
2019-04-27T09:10:59.440Z,92.20
2019-04-27T09:16:20.780Z,92.20
2019-04-27T09:18:52.284Z,91.80
2019-04-27T09:21:22.070Z,91.80
2019-04-27T09:23:51.862Z,91.70
2019-04-27T09:26:21.656Z,91.80
2019-04-27T09:28:51.460Z,91.80
2019-04-27T09:31:21.306Z,92.00
2019-04-27T09:33:51.102Z,92.30
2019-04-27T09:36:20.892Z,92.10
2019-04-27T09:38:50.696Z,92.20
2019-04-27T09:41:21.564Z,92.30
2019-04-27T09:43:51.369Z,90.50
2019-04-27T09:46:21.156Z,90.90
2019-04-27T09:48:51.934Z,90.30
2019-04-27T09:51:21.711Z,90.20
2019-04-27T09:53:56.313Z,90.70
2019-04-27T09:56:26.244Z,90.30
2019-04-27T09:58:57.294Z,90.80
2019-04-27T10:01:28.825Z,90.50
2019-04-27T10:03:58.787Z,90.80
2019-04-27T10:06:30.057Z,90.70
2019-04-27T10:08:59.949Z,90.50
2019-04-27T10:11:29.728Z,88.70
2019-04-27T10:13:59.517Z,87.40
2019-04-27T10:16:29.302Z,86.30
2019-04-27T10:18:59.102Z,86.00
2019-04-27T10:21:28.892Z,85.70
2019-04-27T10:23:58.690Z,85.40
2019-04-27T10:26:28.542Z,84.90
2019-04-27T10:28:58.339Z,83.40
2019-04-27T10:31:28.122Z,83.90
2019-04-27T10:33:57.907Z,83.60
2019-04-27T10:36:39.743Z,83.50
2019-04-27T10:39:13.639Z,83.10
2019-04-27T10:41:46.307Z,83.50
2019-04-27T10:44:16.469Z,82.80
2019-04-27T10:46:46.290Z,82.00
2019-04-27T10:49:16.077Z,80.70
2019-04-27T10:51:45.923Z,80.30
2019-04-27T10:54:15.741Z,80.00
2019-04-27T10:56:46.041Z,79.50
2019-04-27T10:59:16.459Z,79.90
2019-04-27T11:01:46.407Z,79.20
2019-04-27T11:04:17.836Z,79.70
2019-04-27T11:06:54.873Z,78.40
2019-04-27T11:09:25.717Z,76.30
2019-04-27T11:11:56.788Z,77.30
2019-04-27T11:14:26.576Z,77.50
2019-04-27T11:16:56.391Z,78.00
2019-04-27T11:19:26.804Z,78.30
2019-04-27T11:21:56.752Z,77.30
2019-04-27T11:24:26.533Z,78.50
2019-04-27T11:26:56.735Z,79.10
2019-04-27T11:29:27.630Z,79.70
2019-04-27T11:31:57.633Z,80.40
2019-04-27T11:34:45.915Z,80.60
2019-04-27T11:37:17.363Z,81.40
2019-04-27T11:39:48.206Z,81.10
2019-04-27T11:42:17.989Z,81.40
2019-04-27T11:44:47.776Z,81.70
2019-04-27T11:47:17.547Z,82.00
2019-04-27T11:49:47.344Z,82.10
2019-04-27T11:52:17.122Z,82.20
2019-04-27T11:54:46.914Z,80.30
2019-04-27T11:57:16.692Z,79.60
2019-04-27T11:59:46.490Z,80.70
2019-04-27T12:02:17.562Z,80.90
2019-04-27T12:04:47.563Z,79.90
2019-04-27T12:07:17.335Z,78.50
2019-04-27T12:09:48.137Z,77.80
2019-04-27T12:12:21.747Z,78.20
2019-04-27T12:14:49.492Z,78.30
2019-04-27T12:17:19.260Z,77.50
2019-04-27T12:19:49.052Z,77.60
2019-04-27T12:22:18.836Z,76.20
2019-04-27T12:24:48.627Z,75.60
2019-04-27T12:27:25.834Z,75.70
2019-04-27T12:30:03.353Z,75.50
2019-04-27T12:32:33.136Z,74.10
2019-04-27T12:35:03.384Z,74.40
2019-04-27T12:37:33.223Z,74.90
2019-04-27T12:40:05.825Z,74.40
2019-04-27T12:42:36.392Z,71.20
2019-04-27T12:45:09.695Z,71.00
2019-04-27T12:47:39.495Z,69.20
2019-04-27T12:50:13.466Z,68.60
2019-04-27T12:52:46.012Z,66.30
2019-04-27T12:55:26.785Z,65.70
2019-04-27T12:57:58.199Z,65.70
2019-04-27T13:00:32.691Z,66.60
2019-04-27T13:03:02.466Z,66.40
2019-04-27T13:05:32.261Z,64.20
2019-04-27T13:08:02.115Z,65.70
2019-04-27T13:10:31.953Z,64.80
2019-04-27T13:13:01.795Z,64.20
2019-04-27T13:15:31.585Z,64.40
2019-04-27T13:18:01.454Z,62.50
2019-04-27T13:20:32.532Z,62.50
2019-04-27T13:23:02.315Z,60.70
2019-04-27T13:25:32.183Z,61.70
2019-04-27T13:28:01.968Z,62.70
2019-04-27T13:30:31.955Z,60.60
2019-04-27T13:33:01.750Z,61.60
2019-04-27T13:35:33.912Z,62.70
2019-04-27T13:38:03.017Z,60.00
2019-04-27T13:40:35.675Z,60.60
2019-04-27T13:43:16.737Z,61.30
2019-04-27T13:45:54.221Z,61.30
2019-04-27T13:48:31.867Z,59.10
2019-04-27T13:51:09.181Z,59.20
2019-04-27T13:53:38.978Z,58.90
2019-04-27T13:56:14.489Z,59.00
2019-04-27T13:58:44.852Z,58.90
2019-04-27T14:01:14.650Z,59.10
2019-04-27T14:03:45.161Z,59.30
2019-04-27T14:06:15.092Z,59.20
2019-04-27T14:08:44.887Z,60.60
2019-04-27T14:11:14.663Z,62.40
2019-04-27T14:13:44.462Z,65.60
2019-04-27T14:16:14.239Z,73.90
2019-04-27T14:18:44.035Z,78.60
2019-04-27T14:21:13.811Z,81.60
2019-04-27T14:23:43.615Z,80.70
2019-04-27T14:26:13.391Z,78.20
2019-04-27T14:28:43.185Z,76.50
2019-04-27T14:31:13.038Z,76.20
2019-04-27T14:33:42.875Z,74.20
2019-04-27T14:36:12.683Z,74.20
2019-04-27T14:38:43.566Z,76.20
2019-04-27T14:41:13.491Z,75.20
2019-04-27T14:43:43.421Z,73.70
2019-04-27T14:46:13.271Z,74.30
2019-04-27T14:48:43.087Z,72.10
2019-04-27T14:51:12.999Z,68.50
2019-04-27T14:53:42.793Z,64.90
2019-04-27T14:56:12.577Z,60.90
2019-04-27T14:58:42.371Z,57.60
2019-04-27T15:01:12.151Z,51.90
2019-04-27T15:03:41.931Z,46.90
2019-04-27T15:06:11.708Z,47.60
2019-04-27T15:08:42.683Z,51.50
2019-04-27T15:11:15.558Z,55.30
2019-04-27T15:13:47.988Z,50.60
2019-04-27T15:16:16.040Z,51.70
2019-04-27T15:18:50.714Z,53.90
2019-04-27T15:21:20.563Z,56.70
2019-04-27T15:23:50.373Z,60.10
2019-04-27T15:26:22.853Z,62.40
2019-04-27T15:28:53.334Z,64.00
2019-04-27T15:31:33.488Z,66.40
2019-04-27T15:34:14.770Z,68.50
2019-04-27T15:37:02.714Z,69.90
2019-04-27T15:39:43.655Z,71.20
2019-04-27T15:42:19.031Z,66.50
2019-04-27T15:44:50.021Z,64.20
2019-04-27T15:47:21.188Z,57.10
2019-04-27T15:49:54.567Z,50.40
2019-04-27T15:52:25.493Z,46.00
2019-04-27T15:54:55.383Z,42.50
2019-04-27T15:57:25.165Z,41.10
2019-04-27T15:59:54.967Z,37.70
2019-04-27T16:02:28.907Z,39.00
2019-04-27T16:04:58.975Z,41.90
2019-04-27T16:07:31.709Z,44.60
2019-04-27T16:10:02.611Z,47.50
2019-04-27T16:12:34.483Z,49.60
2019-04-27T16:15:05.193Z,51.10
2019-04-27T16:17:36.296Z,53.40
2019-04-27T16:20:06.547Z,55.90
2019-04-27T16:22:36.331Z,58.60
2019-04-27T16:25:08.323Z,59.80
2019-04-27T16:27:38.503Z,61.10
2019-04-27T16:30:12.941Z,62.00
2019-04-27T16:32:44.517Z,63.10
2019-04-27T16:35:14.073Z,63.50
2019-04-27T16:38:01.907Z,64.40
2019-04-27T16:40:31.923Z,68.00
2019-04-27T16:43:01.699Z,71.00
2019-04-27T16:45:31.654Z,72.40
2019-04-27T16:48:02.113Z,74.60
2019-04-27T16:50:31.990Z,76.20
2019-04-27T16:53:01.788Z,76.50
2019-04-27T16:55:34.055Z,75.80
2019-04-27T16:58:04.250Z,75.00
2019-04-27T17:00:34.179Z,74.70
2019-04-27T17:03:06.626Z,75.60
2019-04-27T17:05:35.797Z,76.10
2019-04-27T17:08:13.944Z,74.40
2019-04-27T17:10:40.069Z,74.30
2019-04-27T17:13:14.557Z,74.10
2019-04-27T17:15:58.773Z,74.30
2019-04-27T17:18:30.904Z,74.70
2019-04-27T17:21:15.790Z,75.10
2019-04-27T17:23:32.768Z,75.70
2019-04-27T17:26:14.005Z,75.10
2019-04-27T17:28:41.725Z,75.40
2019-04-27T17:31:13.042Z,75.30
2019-04-27T17:33:48.804Z,74.90
2019-04-27T17:36:19.358Z,74.40
2019-04-27T17:38:51.016Z,74.50
2019-04-27T17:41:20.634Z,74.50
2019-04-27T17:43:50.614Z,74.40
2019-04-27T17:46:22.027Z,74.40
2019-04-27T17:48:53.356Z,74.50
2019-04-27T17:51:23.140Z,75.70
2019-04-27T17:53:53.164Z,75.20
2019-04-27T17:56:35.414Z,75.60
2019-04-27T17:58:55.529Z,76.20
2019-04-27T18:01:30.044Z,75.20
2019-04-27T18:04:00.181Z,75.00
2019-04-27T18:06:29.756Z,74.80
2019-04-27T18:09:03.169Z,74.20
2019-04-27T18:11:36.779Z,74.20
2019-04-27T18:14:04.326Z,74.30
2019-04-27T18:16:34.591Z,74.70
2019-04-27T18:19:08.429Z,74.70
2019-04-27T18:21:39.418Z,74.80
2019-04-27T18:24:10.840Z,75.10
2019-04-27T18:26:49.498Z,75.20
2019-04-27T18:29:18.309Z,74.70
2019-04-27T18:31:53.093Z,76.20
2019-04-27T18:34:19.628Z,77.80
2019-04-27T18:36:49.471Z,79.30
2019-04-27T18:39:19.303Z,80.10
2019-04-27T18:41:53.332Z,80.60
2019-04-27T18:44:23.872Z,80.60
2019-04-27T18:46:53.610Z,80.80
2019-04-27T18:49:30.231Z,81.00
2019-04-27T18:52:08.712Z,80.50
2019-04-27T18:54:41.974Z,80.50
2019-04-27T18:57:10.764Z,80.60
2019-04-27T18:59:41.175Z,80.70
2019-04-27T19:02:10.946Z,80.60
2019-04-27T19:04:40.740Z,80.60
2019-04-27T19:07:10.539Z,80.90
2019-04-27T19:09:40.369Z,81.00
2019-04-27T19:12:10.221Z,81.00
2019-04-27T19:14:40.015Z,81.00
2019-04-27T19:17:09.795Z,80.80
2019-04-27T19:19:39.613Z,80.80
2019-04-27T19:22:10.479Z,80.90
2019-04-27T19:24:40.270Z,80.60
2019-04-27T19:27:18.347Z,80.60
2019-04-27T19:29:44.869Z,80.30
2019-04-27T19:32:14.652Z,80.30
2019-04-27T19:34:44.452Z,79.90
2019-04-27T19:37:14.275Z,80.00
2019-04-27T19:39:44.062Z,80.00
2019-04-27T19:42:13.901Z,80.20
2019-04-27T19:44:56.193Z,80.40
2019-04-27T19:47:26.043Z,80.50
2019-04-27T19:49:55.845Z,80.40
2019-04-27T19:52:25.706Z,80.60
2019-04-27T19:54:55.542Z,81.00
2019-04-27T19:57:34.590Z,82.10
2019-04-27T19:59:58.962Z,81.70
2019-04-27T20:02:28.916Z,81.50
2019-04-27T20:05:03.092Z,81.80
2019-04-27T20:07:33.429Z,81.90
2019-04-27T20:10:04.318Z,82.00
2019-04-27T20:12:34.179Z,82.20
2019-04-27T20:15:05.806Z,82.10
2019-04-27T20:17:35.675Z,82.30
2019-04-27T20:20:07.194Z,82.40
2019-04-27T20:22:37.001Z,82.60
2019-04-27T20:25:07.132Z,82.70
2019-04-27T20:27:46.152Z,82.70
2019-04-27T20:30:11.423Z,82.70
2019-04-27T20:32:42.920Z,82.90
2019-04-27T20:35:12.792Z,82.60
2019-04-27T20:37:42.615Z,82.40
2019-04-27T20:40:13.060Z,82.20
2019-04-27T20:42:44.414Z,82.40
2019-04-27T20:45:14.678Z,83.00
2019-04-27T20:47:44.477Z,82.40
2019-04-27T20:50:14.360Z,82.60
2019-04-27T20:52:45.794Z,82.80
2019-04-27T20:55:16.246Z,82.80
2019-04-27T20:57:58.453Z,82.90
2019-04-27T21:00:19.248Z,82.70
2019-04-27T21:02:51.869Z,82.60
2019-04-27T21:05:32.228Z,82.40
2019-04-27T21:08:12.435Z,82.40
2019-04-27T21:10:42.286Z,82.50
2019-04-27T21:13:13.172Z,82.40
2019-04-27T21:15:43.031Z,82.30
2019-04-27T21:18:12.836Z,82.30
2019-04-27T21:20:42.625Z,82.50
2019-04-27T21:23:12.436Z,82.40
2019-04-27T21:25:42.330Z,82.10
2019-04-27T21:28:18.574Z,82.10
2019-04-27T21:30:43.595Z,82.20
2019-04-27T21:33:13.556Z,82.10
2019-04-27T21:35:45.040Z,81.60
2019-04-27T21:38:14.856Z,81.60
2019-04-27T21:40:44.646Z,81.60
2019-04-27T21:43:16.087Z,81.40
2019-04-27T21:45:45.871Z,81.30
2019-04-27T21:48:15.670Z,81.70
2019-04-27T21:50:45.561Z,80.90
2019-04-27T21:53:25.973Z,80.80
2019-04-27T21:56:03.145Z,80.60
2019-04-27T21:58:33.415Z,80.70
2019-04-27T22:01:26.235Z,80.70
2019-04-27T22:03:56.470Z,80.50
2019-04-27T22:06:26.253Z,80.70
2019-04-27T22:08:56.139Z,81.30
2019-04-27T22:11:25.946Z,81.10
2019-04-27T22:13:55.733Z,81.10
2019-04-27T22:16:25.592Z,80.90
2019-04-27T22:18:55.405Z,80.70
2019-04-27T22:21:25.205Z,80.60
2019-04-27T22:24:00.993Z,80.70
2019-04-27T22:26:31.469Z,80.70
2019-04-27T22:29:01.694Z,80.70
2019-04-27T22:31:31.647Z,80.60
2019-04-27T22:34:02.544Z,80.40
2019-04-27T22:36:32.348Z,80.20
2019-04-27T22:39:03.787Z,80.30
2019-04-27T22:41:45.649Z,80.10
2019-04-27T22:44:21.495Z,80.10
2019-04-27T22:46:53.094Z,79.90
2019-04-27T22:49:22.872Z,80.00
2019-04-27T22:51:52.687Z,80.00
2019-04-27T22:54:22.491Z,80.00
2019-04-27T22:56:53.951Z,79.90
2019-04-27T22:59:25.381Z,79.80
2019-04-27T23:02:10.977Z,79.70
2019-04-27T23:04:42.505Z,80.00
2019-04-27T23:07:12.330Z,79.90
2019-04-27T23:09:42.829Z,79.90
2019-04-27T23:12:14.576Z,80.00
2019-04-27T23:14:44.424Z,80.10
2019-04-27T23:17:33.967Z,80.10
2019-04-27T23:20:06.087Z,80.10
2019-04-27T23:22:35.889Z,80.00
2019-04-27T23:25:07.407Z,79.90
2019-04-27T23:27:37.211Z,80.00
2019-04-27T23:30:08.316Z,79.60
2019-04-27T23:32:41.275Z,79.70
2019-04-27T23:35:11.303Z,79.40
2019-04-27T23:37:41.168Z,79.10
2019-04-27T23:40:11.483Z,79.00
2019-04-27T23:42:41.757Z,79.00
2019-04-27T23:45:13.085Z,78.90
2019-04-27T23:47:42.888Z,78.70
2019-04-27T23:50:14.305Z,78.50
2019-04-27T23:52:52.553Z,78.50
2019-04-27T23:55:24.322Z,78.50
2019-04-27T23:57:54.137Z,78.50
